sensor_id;sensor_type;location;lat;lon;timestamp;pressure;altitude;pressure_sealevel;temperature;humidity
64340;BME280;63709;53.258;-8.814;2023-02-20T00:04:17;102254.31;;;14.38;100.00
64340;BME280;63709;53.258;-8.814;2023-02-20T00:09:44;102244.94;;;14.31;100.00
64340;BME280;63709;53.258;-8.814;2023-02-20T00:15:13;102245.69;;;14.20;100.00
64340;BME280;63709;53.258;-8.814;2023-02-20T00:17:43;102244.06;;;14.17;100.00
64340;BME280;63709;53.258;-8.814;2023-02-20T00:26:07;102234.50;;;14.13;100.00
64340;BME280;63709;53.258;-8.814;2023-02-20T00:31:41;102239.03;;;14.13;100.00
64340;BME280;63709;53.258;-8.814;2023-02-20T00:37:09;102249.78;;;14.25;100.00
64340;BME280;63709;53.258;-8.814;2023-02-20T00:39:34;102250.00;;;14.22;100.00
64340;BME280;63709;53.258;-8.814;2023-02-20T00:45:03;102244.94;;;14.18;100.00
64340;BME280;63709;53.258;-8.814;2023-02-20T00:53:18;102257.72;;;14.27;100.00
64340;BME280;63709;53.258;-8.814;2023-02-20T00:55:57;102254.56;;;14.08;100.00
64340;BME280;63709;53.258;-8.814;2023-02-20T01:01:25;102246.97;;;14.27;100.00
64340;BME280;63709;53.258;-8.814;2023-02-20T01:04:02;102243.25;;;14.29;100.00
64340;BME280;63709;53.258;-8.814;2023-02-20T01:09:30;102238.63;;;14.32;100.00
64340;BME280;63709;53.258;-8.814;2023-02-20T01:12:13;102244.09;;;14.30;100.00
64340;BME280;63709;53.258;-8.814;2023-02-20T01:20:44;102235.97;;;14.44;100.00
64340;BME280;63709;53.258;-8.814;2023-02-20T01:26:12;102233.06;;;14.47;100.00
64340;BME280;63709;53.258;-8.814;2023-02-20T01:31:45;102234.78;;;14.48;100.00
64340;BME280;63709;53.258;-8.814;2023-02-20T01:37:13;102225.22;;;14.44;100.00
64340;BME280;63709;53.258;-8.814;2023-02-20T01:42:41;102223.75;;;14.53;100.00
64340;BME280;63709;53.258;-8.814;2023-02-20T01:48:17;102227.31;;;14.54;100.00
64340;BME280;63709;53.258;-8.814;2023-02-20T01:53:46;102222.16;;;14.50;100.00
64340;BME280;63709;53.258;-8.814;2023-02-20T02:04:27;102224.72;;;14.52;100.00
64340;BME280;63709;53.258;-8.814;2023-02-20T02:12:53;102213.16;;;14.37;100.00
64340;BME280;63709;53.258;-8.814;2023-02-20T02:15:35;102221.63;;;14.31;100.00
64340;BME280;63709;53.258;-8.814;2023-02-20T02:32:28;102206.03;;;14.23;100.00
64340;BME280;63709;53.258;-8.814;2023-02-20T02:43:52;102212.06;;;14.27;100.00
64340;BME280;63709;53.258;-8.814;2023-02-20T02:55:05;102208.00;;;14.21;100.00
64340;BME280;63709;53.258;-8.814;2023-02-20T02:57:37;102204.97;;;14.26;100.00
64340;BME280;63709;53.258;-8.814;2023-02-20T03:05:54;102204.53;;;14.19;100.00
64340;BME280;63709;53.258;-8.814;2023-02-20T03:11:16;102195.53;;;14.20;100.00
64340;BME280;63709;53.258;-8.814;2023-02-20T03:19:42;102197.13;;;14.23;100.00
64340;BME280;63709;53.258;-8.814;2023-02-20T03:22:13;102191.19;;;14.05;100.00
64340;BME280;63709;53.258;-8.814;2023-02-20T03:36:27;102177.25;;;14.13;100.00
64340;BME280;63709;53.258;-8.814;2023-02-20T03:42:17;102189.59;;;14.15;100.00
64340;BME280;63709;53.258;-8.814;2023-02-20T03:45:16;102175.63;;;14.10;100.00
64340;BME280;63709;53.258;-8.814;2023-02-20T03:53:53;102173.94;;;14.22;100.00
64340;BME280;63709;53.258;-8.814;2023-02-20T03:59:14;102177.00;;;14.03;100.00
64340;BME280;63709;53.258;-8.814;2023-02-20T04:01:43;102164.97;;;14.09;100.00
64340;BME280;63709;53.258;-8.814;2023-02-20T04:09:58;102167.13;;;14.16;100.00
64340;BME280;63709;53.258;-8.814;2023-02-20T04:15:26;102159.84;;;14.18;100.00
64340;BME280;63709;53.258;-8.814;2023-02-20T04:20:53;102164.91;;;14.10;100.00
64340;BME280;63709;53.258;-8.814;2023-02-20T04:23:30;102166.41;;;14.14;100.00
64340;BME280;63709;53.258;-8.814;2023-02-20T04:28:51;102168.84;;;14.04;100.00
64340;BME280;63709;53.258;-8.814;2023-02-20T04:39:34;102171.66;;;14.16;100.00
64340;BME280;63709;53.258;-8.814;2023-02-20T04:47:52;102166.28;;;14.16;100.00
64340;BME280;63709;53.258;-8.814;2023-02-20T04:50:20;102160.81;;;14.17;100.00
64340;BME280;63709;53.258;-8.814;2023-02-20T04:52:47;102161.56;;;14.07;100.00
64340;BME280;63709;53.258;-8.814;2023-02-20T04:55:14;102156.50;;;14.15;100.00
64340;BME280;63709;53.258;-8.814;2023-02-20T04:57:39;102149.31;;;14.15;100.00
64340;BME280;63709;53.258;-8.814;2023-02-20T05:00:07;102153.84;;;14.15;100.00
64340;BME280;63709;53.258;-8.814;2023-02-20T05:05:02;102159.09;;;14.16;100.00
64340;BME280;63709;53.258;-8.814;2023-02-20T05:07:37;102150.09;;;14.17;100.00
64340;BME280;63709;53.258;-8.814;2023-02-20T05:12:48;102147.28;;;14.06;100.00
64340;BME280;63709;53.258;-8.814;2023-02-20T05:15:17;102149.63;;;13.98;100.00
64340;BME280;63709;53.258;-8.814;2023-02-20T05:17:42;102152.09;;;14.01;100.00
64340;BME280;63709;53.258;-8.814;2023-02-20T05:20:20;102156.84;;;14.10;100.00
64340;BME280;63709;53.258;-8.814;2023-02-20T05:25:37;102148.66;;;14.12;100.00
64340;BME280;63709;53.258;-8.814;2023-02-20T05:28:15;102152.31;;;14.11;100.00
64340;BME280;63709;53.258;-8.814;2023-02-20T05:30:48;102153.63;;;14.18;100.00
64340;BME280;63709;53.258;-8.814;2023-02-20T05:33:16;102158.75;;;14.08;100.00
64340;BME280;63709;53.258;-8.814;2023-02-20T05:35:43;102163.31;;;14.20;100.00
64340;BME280;63709;53.258;-8.814;2023-02-20T05:44:16;102177.00;;;14.03;100.00
64340;BME280;63709;53.258;-8.814;2023-02-20T05:49:27;102174.00;;;13.95;100.00
64340;BME280;63709;53.258;-8.814;2023-02-20T05:51:54;102180.25;;;14.08;100.00
64340;BME280;63709;53.258;-8.814;2023-02-20T06:08:16;102178.19;;;13.99;100.00
64340;BME280;63709;53.258;-8.814;2023-02-20T06:10:53;102176.88;;;13.92;100.00
64340;BME280;63709;53.258;-8.814;2023-02-20T06:15:54;102171.00;;;13.99;100.00
64340;BME280;63709;53.258;-8.814;2023-02-20T06:20:53;102174.34;;;14.03;100.00
64340;BME280;63709;53.258;-8.814;2023-02-20T06:23:23;102178.94;;;14.01;100.00
64340;BME280;63709;53.258;-8.814;2023-02-20T06:42:43;102164.13;;;13.95;100.00
64340;BME280;63709;53.258;-8.814;2023-02-20T06:47:50;102162.50;;;13.93;100.00
64340;BME280;63709;53.258;-8.814;2023-02-20T06:50:24;102165.94;;;13.95;100.00
64340;BME280;63709;53.258;-8.814;2023-02-20T06:52:52;102164.63;;;13.88;100.00
64340;BME280;63709;53.258;-8.814;2023-02-20T06:55:32;102157.97;;;13.93;100.00
64340;BME280;63709;53.258;-8.814;2023-02-20T06:58:09;102158.75;;;13.95;100.00
64340;BME280;63709;53.258;-8.814;2023-02-20T07:06:22;102155.53;;;14.03;100.00
64340;BME280;63709;53.258;-8.814;2023-02-20T07:14:43;102161.25;;;14.11;100.00
64340;BME280;63709;53.258;-8.814;2023-02-20T07:17:09;102161.16;;;14.13;100.00
64340;BME280;63709;53.258;-8.814;2023-02-20T07:22:37;102140.72;;;14.10;100.00
64340;BME280;63709;53.258;-8.814;2023-02-20T07:25:10;102149.31;;;14.02;100.00
64340;BME280;63709;53.258;-8.814;2023-02-20T07:27:37;102145.53;;;14.05;100.00
64340;BME280;63709;53.258;-8.814;2023-02-20T07:49:34;102149.19;;;13.91;100.00
64340;BME280;63709;53.258;-8.814;2023-02-20T07:55:06;102152.59;;;13.80;100.00
64340;BME280;63709;53.258;-8.814;2023-02-20T08:00:17;102157.75;;;13.84;100.00
64340;BME280;63709;53.258;-8.814;2023-02-20T08:05:40;102148.09;;;13.94;100.00
64340;BME280;63709;53.258;-8.814;2023-02-20T08:08:07;102154.22;;;13.96;100.00
64340;BME280;63709;53.258;-8.814;2023-02-20T08:10:42;102146.19;;;13.96;100.00
64340;BME280;63709;53.258;-8.814;2023-02-20T08:13:10;102155.09;;;13.96;100.00
64340;BME280;63709;53.258;-8.814;2023-02-20T08:18:27;102166.16;;;14.04;100.00
64340;BME280;63709;53.258;-8.814;2023-02-20T08:21:04;102157.03;;;14.07;100.00
64340;BME280;63709;53.258;-8.814;2023-02-20T08:23:38;102155.34;;;14.06;100.00
64340;BME280;63709;53.258;-8.814;2023-02-20T08:26:10;102154.47;;;14.06;100.00
64340;BME280;63709;53.258;-8.814;2023-02-20T08:28:41;102152.53;;;14.08;100.00
64340;BME280;63709;53.258;-8.814;2023-02-20T08:31:07;102151.69;;;14.07;100.00
64340;BME280;63709;53.258;-8.814;2023-02-20T08:36:09;102148.22;;;14.05;100.00
64340;BME280;63709;53.258;-8.814;2023-02-20T08:41:41;102152.53;;;14.08;100.00
64340;BME280;63709;53.258;-8.814;2023-02-20T08:44:16;102155.53;;;14.03;100.00
64340;BME280;63709;53.258;-8.814;2023-02-20T08:46:48;102153.69;;;13.91;100.00
64340;BME280;63709;53.258;-8.814;2023-02-20T08:49:14;102155.97;;;14.10;100.00
64340;BME280;63709;53.258;-8.814;2023-02-20T08:51:42;102159.19;;;14.02;100.00
64340;BME280;63709;53.258;-8.814;2023-02-20T08:54:07;102160.06;;;14.02;100.00
64340;BME280;63709;53.258;-8.814;2023-02-20T08:56:34;102166.81;;;14.08;100.00
64340;BME280;63709;53.258;-8.814;2023-02-20T08:59:00;102171.97;;;14.11;100.00
64340;BME280;63709;53.258;-8.814;2023-02-20T09:01:26;102178.13;;;14.13;100.00
64340;BME280;63709;53.258;-8.814;2023-02-20T09:03:52;102178.84;;;14.15;100.00
64340;BME280;63709;53.258;-8.814;2023-02-20T09:06:19;102182.19;;;14.06;100.00
64340;BME280;63709;53.258;-8.814;2023-02-20T09:08:44;102190.69;;;14.13;100.00
64340;BME280;63709;53.258;-8.814;2023-02-20T09:11:09;102186.38;;;14.10;100.00
64340;BME280;63709;53.258;-8.814;2023-02-20T09:13:45;102199.38;;;14.16;100.00
64340;BME280;63709;53.258;-8.814;2023-02-20T09:16:12;102189.06;;;14.10;100.00
64340;BME280;63709;53.258;-8.814;2023-02-20T09:18:37;102192.06;;;14.18;100.00
64340;BME280;63709;53.258;-8.814;2023-02-20T09:21:02;102192.47;;;14.12;100.00
64340;BME280;63709;53.258;-8.814;2023-02-20T09:23:28;102188.09;;;14.11;100.00
64340;BME280;63709;53.258;-8.814;2023-02-20T09:25:53;102187.13;;;14.12;100.00
64340;BME280;63709;53.258;-8.814;2023-02-20T09:28:20;102180.56;;;14.16;100.00
64340;BME280;63709;53.258;-8.814;2023-02-20T09:30:45;102181.34;;;14.18;100.00
64340;BME280;63709;53.258;-8.814;2023-02-20T09:33:12;102193.59;;;14.22;100.00
64340;BME280;63709;53.258;-8.814;2023-02-20T09:35:37;102185.94;;;14.16;100.00
64340;BME280;63709;53.258;-8.814;2023-02-20T09:38:02;102187.25;;;14.23;100.00
64340;BME280;63709;53.258;-8.814;2023-02-20T09:40:28;102190.03;;;14.22;100.00
64340;BME280;63709;53.258;-8.814;2023-02-20T09:46:03;102192.63;;;14.23;100.00
64340;BME280;63709;53.258;-8.814;2023-02-20T09:51:16;102187.78;;;14.16;100.00
64340;BME280;63709;53.258;-8.814;2023-02-20T09:54:03;102190.69;;;14.13;100.00
64340;BME280;63709;53.258;-8.814;2023-02-20T09:56:37;102186.25;;;14.12;100.00
64340;BME280;63709;53.258;-8.814;2023-02-20T10:01:40;102194.66;;;14.20;100.00
64340;BME280;63709;53.258;-8.814;2023-02-20T10:04:14;102194.66;;;14.20;100.00
64340;BME280;63709;53.258;-8.814;2023-02-20T10:06:41;102195.31;;;14.23;100.00
64340;BME280;63709;53.258;-8.814;2023-02-20T10:09:09;102199.47;;;14.15;100.00
64340;BME280;63709;53.258;-8.814;2023-02-20T10:11:47;102205.81;;;14.14;100.00
64340;BME280;63709;53.258;-8.814;2023-02-20T10:19:36;102193.38;;;14.13;100.00
64340;BME280;63709;53.258;-8.814;2023-02-20T10:22:21;102200.66;;;14.11;100.00
64340;BME280;63709;53.258;-8.814;2023-02-20T10:29:52;102199.72;;;14.24;100.00
64340;BME280;63709;53.258;-8.814;2023-02-20T10:32:24;102191.34;;;14.29;100.00
64340;BME280;63709;53.258;-8.814;2023-02-20T10:34:55;102196.06;;;14.25;100.00
64340;BME280;63709;53.258;-8.814;2023-02-20T10:37:24;102194.88;;;14.29;100.00
64340;BME280;63709;53.258;-8.814;2023-02-20T10:39:55;102198.75;;;14.38;100.00
64340;BME280;63709;53.258;-8.814;2023-02-20T10:42:24;102193.63;;;14.35;100.00
64340;BME280;63709;53.258;-8.814;2023-02-20T10:44:59;102197.69;;;14.41;100.00
64340;BME280;63709;53.258;-8.814;2023-02-20T10:47:30;102202.66;;;14.47;100.00
64340;BME280;63709;53.258;-8.814;2023-02-20T10:50:08;102206.75;;;14.52;100.00
64340;BME280;63709;53.258;-8.814;2023-02-20T10:52:40;102199.56;;;14.53;100.00
64340;BME280;63709;53.258;-8.814;2023-02-20T10:55:20;102195.66;;;14.44;100.00
64340;BME280;63709;53.258;-8.814;2023-02-20T10:57:50;102194.94;;;14.55;100.00
64340;BME280;63709;53.258;-8.814;2023-02-20T11:00:21;102189.78;;;14.52;100.00
64340;BME280;63709;53.258;-8.814;2023-02-20T11:02:55;102195.25;;;14.63;100.00
64340;BME280;63709;53.258;-8.814;2023-02-20T11:05:23;102196.03;;;14.65;100.00
64340;BME280;63709;53.258;-8.814;2023-02-20T11:07:49;102193.88;;;14.70;100.00
64340;BME280;63709;53.258;-8.814;2023-02-20T11:10:14;102181.09;;;14.61;100.00
64340;BME280;63709;53.258;-8.814;2023-02-20T11:12:40;102185.28;;;14.65;100.00
64340;BME280;63709;53.258;-8.814;2023-02-20T11:15:11;102184.44;;;14.65;100.00
64340;BME280;63709;53.258;-8.814;2023-02-20T11:17:38;102185.06;;;14.68;100.00
64340;BME280;63709;53.258;-8.814;2023-02-20T11:20:04;102182.16;;;14.59;100.00
64340;BME280;63709;53.258;-8.814;2023-02-20T11:22:41;102196.44;;;14.59;100.00
64340;BME280;63709;53.258;-8.814;2023-02-20T11:27:39;102188.50;;;14.58;100.00
64340;BME280;63709;53.258;-8.814;2023-02-20T11:30:21;102189.69;;;14.66;100.00
64340;BME280;63709;53.258;-8.814;2023-02-20T11:32:48;102181.81;;;14.63;100.00
64340;BME280;63709;53.258;-8.814;2023-02-20T11:37:43;102188.50;;;14.70;100.00
64340;BME280;63709;53.258;-8.814;2023-02-20T11:40:29;102186.13;;;14.66;100.00
64340;BME280;63709;53.258;-8.814;2023-02-20T11:42:55;102189.78;;;14.77;100.00
64340;BME280;63709;53.258;-8.814;2023-02-20T11:45:33;102189.66;;;14.79;100.00
64340;BME280;63709;53.258;-8.814;2023-02-20T11:50:50;102192.47;;;14.77;100.00
64340;BME280;63709;53.258;-8.814;2023-02-20T11:53:19;102193.31;;;14.78;100.00
64340;BME280;63709;53.258;-8.814;2023-02-20T11:55:46;102188.59;;;14.82;100.00
64340;BME280;63709;53.258;-8.814;2023-02-20T11:58:21;102197.09;;;14.88;100.00
64340;BME280;63709;53.258;-8.814;2023-02-20T12:00:48;102192.91;;;14.84;100.00
64340;BME280;63709;53.258;-8.814;2023-02-20T12:03:21;102190.31;;;14.83;100.00
64340;BME280;63709;53.258;-8.814;2023-02-20T12:05:47;102186.44;;;14.87;100.00
64340;BME280;63709;53.258;-8.814;2023-02-20T12:08:34;102189.44;;;14.82;100.00
64340;BME280;63709;53.258;-8.814;2023-02-20T12:11:25;102189.13;;;14.87;100.00
64340;BME280;63709;53.258;-8.814;2023-02-20T12:13:49;102187.84;;;14.92;100.00
64340;BME280;63709;53.258;-8.814;2023-02-20T12:18:52;102172.56;;;14.93;100.00
64340;BME280;63709;53.258;-8.814;2023-02-20T12:21:23;102176.09;;;14.93;100.00
64340;BME280;63709;53.258;-8.814;2023-02-20T12:23:59;102181.38;;;14.95;100.00
64340;BME280;63709;53.258;-8.814;2023-02-20T12:29:04;102166.28;;;15.05;100.00
64340;BME280;63709;53.258;-8.814;2023-02-20T12:32:32;102164.56;;;15.04;100.00
64340;BME280;63709;53.258;-8.814;2023-02-20T12:34:32;102161.16;;;15.02;100.00
64340;BME280;63709;53.258;-8.814;2023-02-20T12:37:43;102152.97;;;15.04;100.00
64340;BME280;63709;53.258;-8.814;2023-02-20T12:39:59;102152.75;;;14.94;100.00
64340;BME280;63709;53.258;-8.814;2023-02-20T12:47:32;102137.34;;;15.09;100.00
64340;BME280;63709;53.258;-8.814;2023-02-20T12:59:58;102118.25;;;15.24;100.00
64340;BME280;63709;53.258;-8.814;2023-02-20T13:04:53;102111.56;;;15.30;100.00
64340;BME280;63709;53.258;-8.814;2023-02-20T13:07:56;102118.09;;;15.39;100.00
64340;BME280;63709;53.258;-8.814;2023-02-20T13:12:41;102113.25;;;15.31;100.00
64340;BME280;63709;53.258;-8.814;2023-02-20T13:17:56;102113.00;;;15.47;100.00
64340;BME280;63709;53.258;-8.814;2023-02-20T13:20:24;102102.56;;;15.42;100.00
64340;BME280;63709;53.258;-8.814;2023-02-20T13:25:36;102092.19;;;15.49;100.00
64340;BME280;63709;53.258;-8.814;2023-02-20T13:30:36;102082.47;;;15.59;100.00
64340;BME280;63709;53.258;-8.814;2023-02-20T13:33:17;102078.22;;;15.68;100.00
64340;BME280;63709;53.258;-8.814;2023-02-20T13:35:49;102072.19;;;15.64;100.00
64340;BME280;63709;53.258;-8.814;2023-02-20T13:38:17;102081.56;;;15.71;100.00
64340;BME280;63709;53.258;-8.814;2023-02-20T13:41:05;102076.53;;;15.67;100.00
64340;BME280;63709;53.258;-8.814;2023-02-20T13:43:31;102071.91;;;15.69;100.00
64340;BME280;63709;53.258;-8.814;2023-02-20T13:53:53;102071.81;;;15.58;100.00
64340;BME280;63709;53.258;-8.814;2023-02-20T13:58:46;102065.34;;;15.60;100.00
64340;BME280;63709;53.258;-8.814;2023-02-20T14:01:11;102063.84;;;15.56;100.00
64340;BME280;63709;53.258;-8.814;2023-02-20T14:03:37;102069.75;;;15.61;100.00
64340;BME280;63709;53.258;-8.814;2023-02-20T14:08:29;102071.06;;;15.56;100.00
64340;BME280;63709;53.258;-8.814;2023-02-20T14:10:54;102064.84;;;15.55;100.00
64340;BME280;63709;53.258;-8.814;2023-02-20T14:13:20;102061.81;;;15.36;100.00
64340;BME280;63709;53.258;-8.814;2023-02-20T14:15:56;102065.16;;;15.39;100.00
64340;BME280;63709;53.258;-8.814;2023-02-20T14:18:26;102063.09;;;15.43;100.00
64340;BME280;63709;53.258;-8.814;2023-02-20T14:23:31;102063.63;;;15.24;100.00
64340;BME280;63709;53.258;-8.814;2023-02-20T14:26:01;102061.66;;;15.26;100.00
64340;BME280;63709;53.258;-8.814;2023-02-20T14:28:32;102066.41;;;15.22;100.00
64340;BME280;63709;53.258;-8.814;2023-02-20T14:33:41;102060.88;;;15.48;100.00
64340;BME280;63709;53.258;-8.814;2023-02-20T14:39:06;102049.91;;;15.51;100.00
64340;BME280;63709;53.258;-8.814;2023-02-20T14:41:35;102050.59;;;15.42;100.00
64340;BME280;63709;53.258;-8.814;2023-02-20T14:44:02;102050.88;;;15.50;100.00
64340;BME280;63709;53.258;-8.814;2023-02-20T14:49:23;102038.16;;;15.52;100.00
64340;BME280;63709;53.258;-8.814;2023-02-20T14:51:50;102034.38;;;15.55;100.00
64340;BME280;63709;53.258;-8.814;2023-02-20T14:54:18;102041.34;;;15.57;100.00
64340;BME280;63709;53.258;-8.814;2023-02-20T14:56:44;102037.44;;;15.50;100.00
64340;BME280;63709;53.258;-8.814;2023-02-20T14:59:29;102041.66;;;15.41;100.00
64340;BME280;63709;53.258;-8.814;2023-02-20T15:02:01;102042.88;;;15.37;100.00
64340;BME280;63709;53.258;-8.814;2023-02-20T15:04:27;102047.75;;;15.32;100.00
64340;BME280;63709;53.258;-8.814;2023-02-20T15:06:54;102043.81;;;15.25;100.00
64340;BME280;63709;53.258;-8.814;2023-02-20T15:09:24;102040.94;;;15.15;100.00
64340;BME280;63709;53.258;-8.814;2023-02-20T15:11:59;102037.78;;;15.21;100.00
64340;BME280;63709;53.258;-8.814;2023-02-20T15:14:27;102033.09;;;15.12;100.00
64340;BME280;63709;53.258;-8.814;2023-02-20T15:17:18;102028.25;;;15.17;100.00
64340;BME280;63709;53.258;-8.814;2023-02-20T15:19:45;102031.78;;;15.18;100.00
64340;BME280;63709;53.258;-8.814;2023-02-20T15:25:14;102032.00;;;15.15;100.00
64340;BME280;63709;53.258;-8.814;2023-02-20T15:28:01;102023.59;;;15.19;100.00
64340;BME280;63709;53.258;-8.814;2023-02-20T15:30:25;102023.25;;;15.24;100.00
64340;BME280;63709;53.258;-8.814;2023-02-20T15:35:39;102020.13;;;15.06;100.00
64340;BME280;63709;53.258;-8.814;2023-02-20T15:43:25;102012.56;;;15.11;100.00
64340;BME280;63709;53.258;-8.814;2023-02-20T15:45:50;102021.06;;;15.05;100.00
64340;BME280;63709;53.258;-8.814;2023-02-20T15:48:16;102008.88;;;15.12;100.00
64340;BME280;63709;53.258;-8.814;2023-02-20T15:50:41;102003.44;;;15.01;100.00
64340;BME280;63709;53.258;-8.814;2023-02-20T15:53:08;102008.09;;;14.99;100.00
64340;BME280;63709;53.258;-8.814;2023-02-20T15:55:34;102000.97;;;14.98;100.00
64340;BME280;63709;53.258;-8.814;2023-02-20T15:57:59;101997.97;;;15.03;100.00
64340;BME280;63709;53.258;-8.814;2023-02-20T16:00:27;101997.84;;;15.04;100.00
64340;BME280;63709;53.258;-8.814;2023-02-20T16:02:54;101996.38;;;15.00;100.00
64340;BME280;63709;53.258;-8.814;2023-02-20T16:05:20;101996.00;;;15.05;100.00
64340;BME280;63709;53.258;-8.814;2023-02-20T16:07:45;101989.28;;;14.99;100.00
64340;BME280;63709;53.258;-8.814;2023-02-20T16:10:11;102002.59;;;15.00;100.00
64340;BME280;63709;53.258;-8.814;2023-02-20T16:12:38;101995.88;;;14.95;100.00
64340;BME280;63709;53.258;-8.814;2023-02-20T16:15:04;101995.44;;;14.88;100.00
64340;BME280;63709;53.258;-8.814;2023-02-20T16:17:31;101988.59;;;14.84;100.00
64340;BME280;63709;53.258;-8.814;2023-02-20T16:19:56;101988.47;;;14.86;100.00
64340;BME280;63709;53.258;-8.814;2023-02-20T16:22:22;101991.38;;;14.83;100.00
64340;BME280;63709;53.258;-8.814;2023-02-20T16:24:47;101987.84;;;14.82;100.00
64340;BME280;63709;53.258;-8.814;2023-02-20T16:29:44;101989.16;;;14.76;100.00
64340;BME280;63709;53.258;-8.814;2023-02-20T16:32:17;101985.50;;;14.77;100.00
64340;BME280;63709;53.258;-8.814;2023-02-20T16:34:44;101987.16;;;14.91;100.00
64340;BME280;63709;53.258;-8.814;2023-02-20T16:37:10;101983.91;;;14.99;100.00
64340;BME280;63709;53.258;-8.814;2023-02-20T16:39:36;101976.78;;;14.98;100.00
64340;BME280;63709;53.258;-8.814;2023-02-20T16:42:01;101988.25;;;14.89;100.00
64340;BME280;63709;53.258;-8.814;2023-02-20T16:47:26;101992.69;;;15.01;100.00
64340;BME280;63709;53.258;-8.814;2023-02-20T16:49:52;101996.78;;;15.07;100.00
64340;BME280;63709;53.258;-8.814;2023-02-20T16:52:27;102004.06;;;15.05;100.00
64340;BME280;63709;53.258;-8.814;2023-02-20T16:57:39;102006.44;;;15.09;100.00
64340;BME280;63709;53.258;-8.814;2023-02-20T17:00:04;102008.16;;;15.10;100.00
64340;BME280;63709;53.258;-8.814;2023-02-20T17:02:30;102003.41;;;15.14;100.00
64340;BME280;63709;53.258;-8.814;2023-02-20T17:04:56;102015.13;;;15.13;100.00
64340;BME280;63709;53.258;-8.814;2023-02-20T17:07:28;102003.28;;;15.15;100.00
64340;BME280;63709;53.258;-8.814;2023-02-20T17:09:55;102010.44;;;15.04;100.00
64340;BME280;63709;53.258;-8.814;2023-02-20T17:12:28;102009.06;;;14.98;100.00
64340;BME280;63709;53.258;-8.814;2023-02-20T17:14:57;102005.81;;;15.06;100.00
64340;BME280;63709;53.258;-8.814;2023-02-20T17:17:22;102002.03;;;15.08;100.00
64340;BME280;63709;53.258;-8.814;2023-02-20T17:19:48;102001.88;;;14.98;100.00
64340;BME280;63709;53.258;-8.814;2023-02-20T17:22:18;102005.41;;;14.99;100.00
64340;BME280;63709;53.258;-8.814;2023-02-20T17:24:50;102002.19;;;14.94;100.00
64340;BME280;63709;53.258;-8.814;2023-02-20T17:27:16;102006.94;;;14.90;100.00
64340;BME280;63709;53.258;-8.814;2023-02-20T17:29:46;102003.28;;;14.91;100.00
64340;BME280;63709;53.258;-8.814;2023-02-20T17:32:13;101997.78;;;14.93;100.00
64340;BME280;63709;53.258;-8.814;2023-02-20T17:34:39;101995.31;;;14.90;100.00
64340;BME280;63709;53.258;-8.814;2023-02-20T17:37:05;101990.44;;;14.84;100.00
64340;BME280;63709;53.258;-8.814;2023-02-20T17:39:32;101988.63;;;14.71;100.00
64340;BME280;63709;53.258;-8.814;2023-02-20T17:42:00;101987.25;;;14.66;100.00
64340;BME280;63709;53.258;-8.814;2023-02-20T17:46:56;101975.25;;;14.59;100.00
64340;BME280;63709;53.258;-8.814;2023-02-20T17:49:24;101971.56;;;14.60;100.00
64340;BME280;63709;53.258;-8.814;2023-02-20T17:54:50;101974.63;;;14.55;100.00
64340;BME280;63709;53.258;-8.814;2023-02-20T17:57:19;101970.63;;;14.48;100.00
64340;BME280;63709;53.258;-8.814;2023-02-20T17:59:57;101973.63;;;14.56;100.00
64340;BME280;63709;53.258;-8.814;2023-02-20T18:04:55;101974.03;;;14.63;100.00
64340;BME280;63709;53.258;-8.814;2023-02-20T18:07:21;101968.81;;;14.61;100.00
64340;BME280;63709;53.258;-8.814;2023-02-20T18:09:47;101973.41;;;14.59;100.00
64340;BME280;63709;53.258;-8.814;2023-02-20T18:12:12;101970.50;;;14.62;100.00
64340;BME280;63709;53.258;-8.814;2023-02-20T18:14:39;101978.44;;;14.64;100.00
64340;BME280;63709;53.258;-8.814;2023-02-20T18:17:11;101983.19;;;14.60;100.00
64340;BME280;63709;53.258;-8.814;2023-02-20T18:19:48;101982.75;;;14.66;100.00
64340;BME280;63709;53.258;-8.814;2023-02-20T18:22:15;101980.91;;;14.67;100.00
64340;BME280;63709;53.258;-8.814;2023-02-20T18:24:41;101985.09;;;14.71;100.00
64340;BME280;63709;53.258;-8.814;2023-02-20T18:27:06;101981.19;;;14.75;100.00
64340;BME280;63709;53.258;-8.814;2023-02-20T18:29:33;101989.03;;;14.78;100.00
64340;BME280;63709;53.258;-8.814;2023-02-20T18:31:58;101988.06;;;14.79;100.00
64340;BME280;63709;53.258;-8.814;2023-02-20T18:34:24;101993.75;;;14.87;100.00
64340;BME280;63709;53.258;-8.814;2023-02-20T18:36:51;101993.00;;;14.85;100.00
64340;BME280;63709;53.258;-8.814;2023-02-20T18:39:17;102000.94;;;14.87;100.00
64340;BME280;63709;53.258;-8.814;2023-02-20T18:41:55;101997.50;;;14.85;100.00
64340;BME280;63709;53.258;-8.814;2023-02-20T18:44:30;101992.84;;;14.87;100.00
64340;BME280;63709;53.258;-8.814;2023-02-20T18:46:55;101990.00;;;14.77;100.00
64340;BME280;63709;53.258;-8.814;2023-02-20T18:49:24;101996.88;;;14.81;100.00
64340;BME280;63709;53.258;-8.814;2023-02-20T18:51:50;101991.94;;;14.75;100.00
64340;BME280;63709;53.258;-8.814;2023-02-20T18:54:17;101992.06;;;14.73;100.00
64340;BME280;63709;53.258;-8.814;2023-02-20T18:56:48;101985.94;;;14.71;100.00
64340;BME280;63709;53.258;-8.814;2023-02-20T18:59:15;101982.41;;;14.71;100.00
64340;BME280;63709;53.258;-8.814;2023-02-20T19:01:44;101979.94;;;14.68;100.00
64340;BME280;63709;53.258;-8.814;2023-02-20T19:04:10;101976.38;;;14.67;100.00
64340;BME280;63709;53.258;-8.814;2023-02-20T19:06:38;101977.50;;;14.65;100.00
64340;BME280;63709;53.258;-8.814;2023-02-20T19:09:08;101978.34;;;14.65;100.00
64340;BME280;63709;53.258;-8.814;2023-02-20T19:11:36;101976.28;;;14.69;100.00
64340;BME280;63709;53.258;-8.814;2023-02-20T19:14:01;101976.59;;;14.64;100.00